Bei Facebook empfehlenBei Twitter postenGoogle plusPinterest

Das Wetter im Erzgebirge am 20.07.2016

Wetter und Klima am 20.07.2016 Holzhau im Erzgebirge (630m ü.NN)
Letzte gemessene Temperatur und Uhrzeit der Messung23:45:00 Uhr15.40 °C
Temperatur (Maximum / Höchstwert) und Uhrzeit der Messung17:15:00 Uhr28.90 °C
Temperatur (Minimum / Tiefstwert) und Uhrzeit der Messung06:00:0010.10 °C
Errechneter Absolutwert der Temperaturschwankungen zwischen Tmin und Tmax des Tages18.80 K
Errechnete Tagesmitteltemperatur19.60313 °C
Gesamt - Niederschlag des Tages (in flüssiger Form)0.00 Liter / m²
Luftdruck (Maximum / Höchstwert) und Zeitpunkt der Messung00:30:00 Uhr1019.90 hPa
Luftdruck (Minimum / Tiefstwert) und Zeitpunkt der Messung23:45:00 Uhr1015.60 hPa
Errechneter Absolutwert der Luftdruckschwankungen des Tages4.30 hPa
Höchste gemessene Windgeschwindigkeit und Uhrzeit der Messung23:45:00 Uhr0.00 km/h
Errechnete Windhäufigkeit in Relation zu den Messwerten des Tages0.00000 %
Niedrigste Windkühle (Windchill) und Zeitpunkt der Messung06:00:00 Uhr10.10 °C
Taupunkt (Maximum / Höchstwert) und Uhrzeit der Messung11:45:00 Uhr17.90 °C
Taupunkt (Minimum / Tiefstwert) und Uhrzeit der Messung04:45:008.90 °C
Anzahl der automatisch eingelesenen Messwerte 96

Detaillierte Wetter- und Klima- Messwerte für den 20.07.2016 in Holzhau im Erzgebirge (630m ü.NN)
ZeitTemperaturLuftdruckRel. LuftfeuchteWindWindrichtungWindchillTaupunktNiederschlag l/m²
23:45:0015.40 °C1015.60 hPa84.00 %12.70 °C 
23:30:0015.40 °C1015.60 hPa84.00 %12.70 °C 
23:15:0015.30 °C1015.80 hPa84.00 %12.60 °C 
23:00:0015.50 °C1015.80 hPa83.00 %12.60 °C 
22:45:0015.80 °C1016.10 hPa82.00 %12.70 °C 
22:30:0016.10 °C1016.10 hPa81.00 %12.80 °C 
22:15:0016.50 °C1016.10 hPa81.00 %13.20 °C 
22:00:0016.90 °C1016.10 hPa79.00 %13.20 °C 
21:45:0017.50 °C1016.20 hPa78.00 %13.60 °C 
21:30:0018.10 °C1016.10 hPa76.00 %13.80 °C 
21:15:0018.80 °C1016.10 hPa74.00 %14.10 °C 
21:00:0019.70 °C1015.90 hPa71.00 %14.30 °C 
20:45:0020.80 °C1016.00 hPa69.00 %14.90 °C 
20:30:0021.80 °C1015.80 hPa66.00 %15.20 °C 
20:15:0022.90 °C1016.00 hPa63.00 %15.50 °C 
20:00:0023.90 °C1016.00 hPa60.00 %15.70 °C 
19:45:0024.40 °C1016.00 hPa59.00 %15.90 °C 
19:30:0024.80 °C1016.00 hPa59.00 %16.20 °C 
19:15:0025.50 °C1016.10 hPa58.00 %16.60 °C 
19:00:0025.90 °C1016.50 hPa58.00 %17.00 °C 
18:45:0026.10 °C1016.30 hPa57.00 %16.90 °C 
18:30:0026.50 °C1016.30 hPa55.00 %16.70 °C 
18:15:0027.00 °C1016.60 hPa54.00 %16.90 °C 
18:00:0027.60 °C1016.70 hPa52.00 %16.90 °C 
17:45:0028.20 °C1016.60 hPa50.00 %16.80 °C 
17:30:0028.20 °C1016.70 hPa50.00 %16.80 °C 
17:15:0028.90 °C1016.90 hPa46.00 %16.10 °C 
17:00:0028.60 °C1016.90 hPa47.00 %16.20 °C 
16:45:0028.20 °C1017.10 hPa47.00 %15.80 °C 
16:30:0028.20 °C1016.90 hPa47.00 %15.80 °C 
16:15:0028.10 °C1016.80 hPa47.00 %15.70 °C 
16:00:0028.50 °C1017.00 hPa48.00 %16.40 °C 
15:45:0028.40 °C1017.00 hPa48.00 %16.30 °C 
15:30:0028.60 °C1017.20 hPa46.00 %15.80 °C 
15:15:0028.60 °C1017.20 hPa48.00 %16.50 °C 
15:00:0028.50 °C1017.20 hPa48.00 %16.40 °C 
14:45:0027.80 °C1017.20 hPa51.00 %16.70 °C 
14:30:0027.60 °C1017.50 hPa51.00 %16.60 °C 
14:15:0027.20 °C1017.60 hPa51.00 %16.20 °C 
14:00:0027.30 °C1017.70 hPa51.00 %16.30 °C 
13:45:0027.70 °C1017.80 hPa51.00 %16.60 °C 
13:30:0027.50 °C1017.70 hPa53.00 %17.10 °C 
13:15:0026.60 °C1017.90 hPa55.00 %16.80 °C 
13:00:0026.40 °C1017.90 hPa54.00 %16.30 °C 
12:45:0026.70 °C1017.90 hPa56.00 %17.20 °C 
12:30:0026.30 °C1017.90 hPa56.00 %16.80 °C 
12:15:0025.70 °C1017.90 hPa57.00 %16.50 °C 
12:00:0025.90 °C1018.10 hPa60.00 %17.50 °C 
11:45:0025.50 °C1018.10 hPa63.00 %17.90 °C 
11:30:0024.30 °C1018.30 hPa66.00 %17.50 °C 
11:15:0023.80 °C1018.30 hPa66.00 %17.10 °C 
11:00:0024.20 °C1018.50 hPa65.00 %17.20 °C 
10:45:0023.80 °C1018.60 hPa68.00 %17.50 °C 
10:30:0022.90 °C1018.60 hPa70.00 %17.10 °C 
10:15:0022.10 °C1018.50 hPa73.00 %17.00 °C 
10:00:0021.30 °C1018.70 hPa75.00 %16.70 °C 
09:45:0021.10 °C1018.40 hPa75.00 %16.50 °C 
09:30:0020.80 °C1018.50 hPa74.00 %16.00 °C 
09:15:0021.60 °C1018.50 hPa75.00 %17.00 °C 
09:00:0021.20 °C1018.50 hPa78.00 %17.20 °C 
08:45:0020.40 °C1018.50 hPa79.00 %16.60 °C 
08:30:0020.30 °C1018.70 hPa81.00 %16.90 °C 
08:15:0020.10 °C1018.80 hPa84.00 %17.30 °C 
08:00:0019.60 °C1018.90 hPa88.00 %17.60 °C 
07:45:0018.40 °C1018.90 hPa91.00 %16.90 °C 
07:30:0016.10 °C1019.10 hPa94.00 %15.10 °C 
07:15:0013.00 °C1019.00 hPa95.00 %12.20 °C 
07:00:0011.60 °C1019.20 hPa94.00 %10.70 °C 
06:45:0011.00 °C1019.30 hPa94.00 %10.10 °C 
06:30:0010.60 °C1019.20 hPa94.00 %9.70 °C 
06:15:0010.30 °C1019.30 hPa94.00 %9.40 °C 
06:00:0010.10 °C1019.20 hPa93.00 %9.00 °C 
05:45:0010.20 °C1019.30 hPa93.00 %9.10 °C 
05:30:0010.10 °C1019.30 hPa93.00 %9.00 °C 
05:15:0010.10 °C1019.30 hPa93.00 %9.00 °C 
05:00:0010.10 °C1019.30 hPa93.00 %9.00 °C 
04:45:0010.10 °C1019.30 hPa92.00 %8.90 °C 
04:30:0010.10 °C1019.30 hPa92.00 %8.90 °C 
04:15:0010.30 °C1019.40 hPa93.00 %9.20 °C 
04:00:0010.50 °C1019.40 hPa93.00 %9.40 °C 
03:45:0010.60 °C1019.40 hPa92.00 %9.40 °C 
03:30:0010.60 °C1019.50 hPa92.00 %9.40 °C 
03:15:0010.60 °C1019.60 hPa92.00 %9.40 °C 
03:00:0010.70 °C1019.60 hPa92.00 %9.50 °C 
02:45:0010.80 °C1019.60 hPa91.00 %9.40 °C 
02:30:0010.90 °C1019.60 hPa91.00 %9.50 °C 
02:15:0011.10 °C1019.70 hPa91.00 %9.70 °C 
02:00:0011.30 °C1019.70 hPa91.00 %9.90 °C 
01:45:0011.40 °C1019.70 hPa90.00 %9.80 °C 
01:30:0011.60 °C1019.70 hPa90.00 %10.00 °C 
01:15:0011.80 °C1019.70 hPa90.00 %10.20 °C 
01:00:0012.10 °C1019.80 hPa90.00 %10.50 °C 
00:45:0012.50 °C1019.80 hPa90.00 %10.90 °C 
00:30:0012.70 °C1019.90 hPa89.00 %10.90 °C 
00:15:0012.80 °C1019.80 hPa89.00 %11.00 °C 
00:00:0012.90 °C1019.70 hPa88.00 %11.00 °C 

Permanenter Link zu dieser Seite: Wetter im Erzgebirge am 20.07.2016
Performance-Info: Die Erstellung der Seite / Statistik(en) / Tabelle(n) erforderte 5 Datenbankserver-Abfrage(n) und dauerte 97 Millisekunden. (Dieser Messwert ist von der Gesamt-Auslastung des Servers abhängig.)
Erzgebirge - Wetter | Erzgebirge - Wetter (Mobilgeräte) | Komplette Klimadatenbank